createdAt,value
2016-12-15T00:00:47.084Z,20.72
2016-12-15T00:01:56.694Z,20.67
2016-12-15T00:03:06.009Z,20.72
2016-12-15T00:04:15.610Z,20.69
2016-12-15T00:05:24.918Z,20.66
2016-12-15T00:06:33.930Z,20.7
2016-12-15T00:07:42.941Z,20.66
2016-12-15T00:08:52.232Z,20.72
2016-12-15T00:10:01.224Z,20.66
2016-12-15T00:11:10.516Z,20.72
2016-12-15T00:12:19.492Z,20.74
2016-12-15T00:13:28.494Z,20.72
2016-12-15T00:14:37.486Z,20.69
2016-12-15T00:15:47.097Z,20.73
2016-12-15T00:16:56.091Z,20.69
2016-12-15T00:18:05.391Z,20.73
2016-12-15T00:19:14.682Z,20.73
2016-12-15T00:20:23.970Z,20.67
2016-12-15T00:21:33.273Z,20.76
2016-12-15T00:22:42.253Z,20.67
2016-12-15T00:23:51.260Z,20.72
2016-12-15T00:25:00.551Z,20.72
2016-12-15T00:26:09.234Z,20.66
2016-12-15T00:27:17.910Z,20.7
2016-12-15T00:28:26.606Z,20.72
2016-12-15T00:29:35.292Z,20.66
2016-12-15T00:30:44.273Z,20.72
2016-12-15T00:31:53.261Z,20.69
2016-12-15T00:33:01.997Z,20.7
2016-12-15T00:34:11.307Z,20.74
2016-12-15T00:35:20.326Z,20.67
2016-12-15T00:36:29.312Z,20.74
2016-12-15T00:37:38.007Z,20.77
2016-12-15T00:38:46.701Z,20.73
2016-12-15T00:39:55.685Z,20.73
2016-12-15T00:41:04.378Z,20.72
2016-12-15T00:42:13.684Z,20.7
2016-12-15T00:43:22.674Z,20.67
2016-12-15T00:44:31.666Z,20.74
2016-12-15T00:45:40.645Z,20.7
2016-12-15T00:46:49.640Z,20.72
2016-12-15T00:47:58.329Z,20.69
2016-12-15T00:49:07.627Z,20.72
2016-12-15T00:50:16.612Z,20.72
2016-12-15T00:51:25.903Z,20.76
2016-12-15T00:52:34.883Z,20.69
2016-12-15T00:53:44.179Z,20.72
2016-12-15T00:54:53.488Z,20.64
2016-12-15T00:56:02.463Z,20.69
2016-12-15T00:57:11.754Z,20.74
2016-12-15T00:58:20.431Z,20.69
2016-12-15T00:59:29.717Z,20.58
2016-12-15T01:00:39.009Z,20.7
2016-12-15T01:01:47.682Z,20.7
2016-12-15T01:02:56.689Z,20.69
2016-12-15T01:04:06.283Z,20.74
2016-12-15T01:05:15.576Z,20.7
2016-12-15T01:06:24.872Z,20.7
2016-12-15T01:07:33.571Z,20.69
2016-12-15T01:08:42.245Z,20.67
2016-12-15T01:09:50.937Z,20.72
2016-12-15T01:11:00.546Z,20.66
2016-12-15T01:12:09.538Z,20.72
2016-12-15T01:13:19.150Z,20.66
2016-12-15T01:14:28.757Z,20.7
2016-12-15T01:15:37.450Z,20.69
2016-12-15T01:16:46.143Z,20.58
2016-12-15T01:17:55.440Z,20.7
2016-12-15T01:19:04.725Z,20.7
2016-12-15T01:20:14.057Z,20.67
2016-12-15T01:21:23.063Z,20.7
2016-12-15T01:22:32.052Z,20.67
2016-12-15T01:23:41.035Z,20.67
2016-12-15T01:24:50.026Z,20.7
2016-12-15T01:25:59.370Z,20.74
2016-12-15T01:27:08.061Z,20.7
2016-12-15T01:28:16.747Z,20.64
2016-12-15T01:29:25.748Z,20.59
2016-12-15T01:30:35.043Z,20.69
2016-12-15T01:31:44.027Z,20.67
2016-12-15T01:32:53.020Z,20.64
2016-12-15T01:34:01.704Z,20.69
2016-12-15T01:35:10.998Z,20.67
2016-12-15T01:36:19.982Z,20.67
2016-12-15T01:37:28.980Z,20.7
2016-12-15T01:38:37.979Z,20.72
2016-12-15T01:39:46.671Z,20.67
2016-12-15T01:40:56.277Z,20.66
2016-12-15T01:42:05.268Z,20.7
2016-12-15T01:43:14.248Z,20.59
2016-12-15T01:44:22.933Z,20.61
2016-12-15T01:45:31.917Z,20.61
2016-12-15T01:46:40.600Z,20.55
2016-12-15T01:47:49.283Z,20.61
2016-12-15T01:48:58.572Z,20.62
2016-12-15T01:50:07.561Z,20.66
2016-12-15T01:51:16.857Z,20.7
2016-12-15T01:52:25.537Z,20.61
2016-12-15T01:53:34.529Z,20.61
2016-12-15T01:54:43.513Z,20.64
2016-12-15T01:55:52.794Z,20.64
2016-12-15T01:57:01.825Z,20.67
2016-12-15T01:58:11.732Z,20.64
2016-12-15T01:59:20.737Z,20.66
2016-12-15T02:00:30.348Z,20.62
2016-12-15T02:01:39.647Z,20.62
2016-12-15T02:02:48.329Z,20.66
2016-12-15T02:03:57.008Z,20.67
2016-12-15T02:05:06.001Z,20.55
2016-12-15T02:06:14.677Z,20.66
2016-12-15T02:07:23.684Z,20.61
2016-12-15T02:08:32.970Z,20.69
2016-12-15T02:09:41.953Z,20.59
2016-12-15T02:10:51.256Z,20.67
2016-12-15T02:12:00.244Z,20.59
2016-12-15T02:13:09.237Z,20.59
2016-12-15T02:14:18.236Z,20.61
2016-12-15T02:15:27.250Z,20.58
2016-12-15T02:16:35.934Z,20.61
2016-12-15T02:17:44.951Z,20.59
2016-12-15T02:18:54.544Z,20.54
2016-12-15T02:20:03.239Z,20.62
2016-12-15T02:21:12.231Z,20.62
2016-12-15T02:22:21.212Z,20.62
2016-12-15T02:23:30.211Z,20.59
2016-12-15T02:24:38.897Z,20.59
2016-12-15T02:25:48.193Z,20.64
2016-12-15T02:26:57.194Z,20.62
2016-12-15T02:28:06.487Z,20.59
2016-12-15T02:29:15.172Z,20.64
2016-12-15T02:30:24.156Z,20.57
2016-12-15T02:31:33.453Z,20.58
2016-12-15T02:32:42.756Z,20.57
2016-12-15T02:33:51.432Z,20.5
2016-12-15T02:35:00.121Z,20.54
2016-12-15T02:36:09.108Z,20.57
2016-12-15T02:37:18.719Z,20.59
2016-12-15T02:38:28.021Z,20.59
2016-12-15T02:39:37.019Z,20.57
2016-12-15T02:40:46.005Z,20.62
2016-12-15T02:41:54.694Z,20.58
2016-12-15T02:43:03.674Z,20.57
2016-12-15T02:44:12.970Z,20.59
2016-12-15T02:45:21.970Z,20.55
2016-12-15T02:46:30.654Z,20.55
2016-12-15T02:47:39.654Z,20.5
2016-12-15T02:48:48.637Z,20.55
2016-12-15T02:49:57.627Z,20.41
2016-12-15T02:51:06.627Z,20.54
2016-12-15T02:52:15.302Z,20.51
2016-12-15T02:53:24.303Z,20.55
2016-12-15T02:54:33.285Z,20.55
2016-12-15T02:55:42.267Z,20.54
2016-12-15T02:56:51.884Z,20.47
2016-12-15T02:58:00.557Z,20.47
2016-12-15T02:59:09.235Z,20.51
2016-12-15T03:00:18.231Z,20.5
2016-12-15T03:01:26.914Z,20.51
2016-12-15T03:02:36.205Z,20.5
2016-12-15T03:03:44.885Z,20.57
2016-12-15T03:04:53.870Z,20.48
2016-12-15T03:06:03.467Z,20.43
2016-12-15T03:07:12.460Z,20.39
2016-12-15T03:08:21.144Z,20.54
2016-12-15T03:09:30.745Z,20.42
2016-12-15T03:10:39.748Z,20.5
2016-12-15T03:11:48.763Z,20.48
2016-12-15T03:12:57.479Z,20.54
2016-12-15T03:14:06.157Z,20.47
2016-12-15T03:15:15.161Z,20.42
2016-12-15T03:16:24.460Z,20.57
2016-12-15T03:17:33.743Z,20.51
2016-12-15T03:18:42.416Z,20.47
2016-12-15T03:19:51.100Z,20.51
2016-12-15T03:21:00.116Z,20.5
2016-12-15T03:22:09.409Z,20.59
2016-12-15T03:23:18.708Z,20.58
2016-12-15T03:24:27.695Z,20.48
2016-12-15T03:25:36.992Z,20.47
2016-12-15T03:26:46.291Z,20.43
2016-12-15T03:27:54.969Z,20.54
2016-12-15T03:29:04.267Z,20.5
2016-12-15T03:30:13.262Z,20.58
2016-12-15T03:31:22.252Z,20.57
2016-12-15T03:32:31.545Z,20.54
2016-12-15T03:33:40.241Z,20.42
2016-12-15T03:34:48.925Z,20.54
2016-12-15T03:35:58.228Z,20.55
2016-12-15T03:37:07.216Z,20.52
2016-12-15T03:38:16.211Z,20.52
2016-12-15T03:39:25.206Z,20.43
2016-12-15T03:40:34.859Z,20.57
2016-12-15T03:41:43.551Z,20.54
2016-12-15T03:42:52.237Z,20.5
2016-12-15T03:44:01.844Z,20.43
2016-12-15T03:45:10.533Z,20.54
2016-12-15T03:46:19.214Z,20.57
2016-12-15T03:47:27.902Z,20.43
2016-12-15T03:48:36.574Z,20.43
2016-12-15T03:49:46.191Z,20.51
2016-12-15T03:50:55.175Z,20.54
2016-12-15T03:52:03.852Z,20.42
2016-12-15T03:53:12.850Z,20.47
2016-12-15T03:54:21.841Z,20.54
2016-12-15T03:55:30.822Z,20.54
2016-12-15T03:56:39.808Z,20.51
2016-12-15T03:57:49.104Z,20.41
2016-12-15T03:58:57.776Z,20.43
2016-12-15T04:00:06.454Z,20.51
2016-12-15T04:01:15.443Z,20.43
2016-12-15T04:02:24.150Z,20.52
2016-12-15T04:03:32.836Z,20.54
2016-12-15T04:04:42.129Z,20.57
2016-12-15T04:05:51.148Z,20.51
2016-12-15T04:06:59.836Z,20.54
2016-12-15T04:08:08.524Z,20.5
2016-12-15T04:09:17.525Z,20.52
2016-12-15T04:10:26.213Z,20.51
2016-12-15T04:11:35.205Z,20.55
2016-12-15T04:12:44.193Z,20.5
2016-12-15T04:13:53.186Z,20.51
2016-12-15T04:15:02.492Z,20.52
2016-12-15T04:16:11.468Z,20.54
2016-12-15T04:17:20.466Z,20.55
2016-12-15T04:18:29.770Z,20.51
2016-12-15T04:19:39.053Z,20.52
2016-12-15T04:20:48.048Z,20.54
2016-12-15T04:21:57.036Z,20.51
2016-12-15T04:23:05.720Z,20.43
2016-12-15T04:24:15.005Z,20.51
2016-12-15T04:25:24.031Z,20.54
2016-12-15T04:26:33.021Z,20.54
2016-12-15T04:27:42.298Z,20.57
2016-12-15T04:28:50.974Z,20.51
2016-12-15T04:29:59.963Z,20.42
2016-12-15T04:31:09.257Z,20.48
2016-12-15T04:32:18.563Z,20.5
2016-12-15T04:33:27.244Z,20.57
2016-12-15T04:34:35.928Z,20.39
2016-12-15T04:35:44.602Z,20.42
2016-12-15T04:36:53.278Z,20.5
2016-12-15T04:38:01.963Z,20.5
2016-12-15T04:39:10.641Z,20.51
2016-12-15T04:40:19.936Z,20.54
2016-12-15T04:41:29.225Z,20.5
2016-12-15T04:42:37.908Z,20.38
2016-12-15T04:43:46.895Z,20.5
2016-12-15T04:44:55.897Z,20.42
2016-12-15T04:46:04.876Z,20.42
2016-12-15T04:47:13.858Z,20.39
2016-12-15T04:48:23.149Z,20.48
2016-12-15T04:49:32.142Z,20.43
2016-12-15T04:50:41.432Z,20.48
2016-12-15T04:51:50.112Z,20.5
2016-12-15T04:52:59.710Z,20.54
2016-12-15T04:54:08.697Z,20.55
2016-12-15T04:55:18.012Z,20.48
2016-12-15T04:56:27.002Z,20.43
2016-12-15T04:57:36.291Z,20.47
2016-12-15T04:58:45.273Z,20.51
2016-12-15T04:59:54.259Z,20.47
2016-12-15T05:01:03.257Z,20.5
2016-12-15T05:02:11.929Z,20.43
2016-12-15T05:03:21.268Z,20.48
2016-12-15T05:04:29.943Z,20.55
2016-12-15T05:05:39.265Z,20.52
2016-12-15T05:06:48.237Z,20.48
2016-12-15T05:07:57.526Z,20.42
2016-12-15T05:09:06.519Z,20.48
2016-12-15T05:10:15.814Z,20.47
2016-12-15T05:11:25.098Z,20.5
2016-12-15T05:12:34.395Z,20.48
2016-12-15T05:13:43.692Z,20.48
2016-12-15T05:14:52.688Z,20.47
2016-12-15T05:16:01.372Z,20.41
2016-12-15T05:17:10.361Z,20.43
2016-12-15T05:18:20.283Z,20.42
2016-12-15T05:19:29.270Z,20.52
2016-12-15T05:20:38.269Z,20.5
2016-12-15T05:21:46.941Z,20.42
2016-12-15T05:22:55.939Z,20.48
2016-12-15T05:24:04.934Z,20.5
2016-12-15T05:25:13.610Z,20.41
2016-12-15T05:26:22.608Z,20.42
2016-12-15T05:27:31.294Z,20.41
2016-12-15T05:28:41.196Z,20.41
2016-12-15T05:29:50.170Z,20.43
2016-12-15T05:30:59.777Z,20.38
2016-12-15T05:32:08.820Z,20.41
2016-12-15T05:33:17.823Z,20.41
2016-12-15T05:34:26.508Z,20.41
2016-12-15T05:35:35.190Z,20.41
2016-12-15T05:36:44.484Z,20.51
2016-12-15T05:37:53.787Z,20.52
2016-12-15T05:39:02.475Z,20.41
2016-12-15T05:40:11.467Z,20.51
2016-12-15T05:41:20.147Z,20.66
2016-12-15T05:42:29.136Z,20.67
2016-12-15T05:43:37.839Z,20.67
2016-12-15T05:44:46.526Z,20.7
2016-12-15T05:45:55.211Z,20.76
2016-12-15T05:47:04.511Z,20.87
2016-12-15T05:48:13.185Z,20.95
2016-12-15T05:49:22.177Z,20.95
2016-12-15T05:50:31.161Z,21.07
2016-12-15T05:51:40.460Z,20.99
2016-12-15T05:52:49.141Z,21.1
2016-12-15T05:56:30.509Z,21.25
2016-12-15T05:57:39.507Z,21.28
2016-12-15T06:01:20.867Z,21.49
2016-12-15T06:05:02.216Z,21.65
2016-12-15T06:08:43.571Z,21.8
2016-12-15T06:12:24.929Z,21.94
2016-12-15T06:18:42.511Z,21.99
2016-12-15T06:22:24.182Z,22.12
2016-12-15T06:23:32.874Z,22.25
2016-12-15T06:24:41.853Z,22.2
2016-12-15T06:25:50.536Z,22.22
2016-12-15T06:26:59.839Z,22.31
2016-12-15T06:28:08.840Z,22.31
2016-12-15T06:29:18.149Z,22.31
2016-12-15T06:30:26.825Z,22.33
2016-12-15T06:31:35.520Z,22.39
2016-12-15T06:32:44.815Z,22.46
2016-12-15T06:33:53.806Z,22.55
2016-12-15T06:35:02.811Z,22.54
2016-12-15T06:36:11.502Z,22.61
2016-12-15T06:37:20.195Z,22.58
2016-12-15T06:38:29.499Z,22.64
2016-12-15T06:39:38.793Z,22.6
2016-12-15T06:40:47.789Z,22.65
2016-12-15T06:41:56.461Z,22.62
2016-12-15T06:43:05.751Z,22.67
2016-12-15T06:44:14.748Z,22.88
2016-12-15T06:45:23.735Z,22.8
2016-12-15T06:46:32.420Z,22.83
2016-12-15T06:47:41.100Z,22.85
2016-12-15T06:48:50.095Z,22.98
2016-12-15T06:49:59.107Z,23
2016-12-15T06:51:08.408Z,22.97
2016-12-15T06:52:17.094Z,23.05
2016-12-15T06:53:26.390Z,23.04
2016-12-15T06:54:35.398Z,23.02
2016-12-15T06:55:44.082Z,23.13
2016-12-15T06:56:52.767Z,23.16
2016-12-15T06:58:02.742Z,23.17
2016-12-15T06:59:12.349Z,23.09
2016-12-15T07:00:21.069Z,23.17
2016-12-15T07:01:30.067Z,23.1
2016-12-15T07:02:38.747Z,23.19
2016-12-15T07:04:19.967Z,23.15
2016-12-15T07:05:28.954Z,23.19
2016-12-15T07:06:37.677Z,23.17
2016-12-15T07:07:47.271Z,23.16
2016-12-15T07:08:55.965Z,23.15
2016-12-15T07:10:05.568Z,23.1
2016-12-15T07:11:14.888Z,23.04
2016-12-15T07:12:23.603Z,23.04
2016-12-15T07:13:32.307Z,23.04
2016-12-15T07:14:41.062Z,23.05
2016-12-15T07:15:50.403Z,23.04
2016-12-15T07:16:59.138Z,23.01
2016-12-15T07:18:07.823Z,22.98
2016-12-15T07:19:16.529Z,22.97
2016-12-15T07:20:25.519Z,22.94
2016-12-15T07:21:34.536Z,22.92
2016-12-15T07:22:43.554Z,22.92
2016-12-15T07:23:52.554Z,22.8
2016-12-15T07:25:01.899Z,22.77
2016-12-15T07:26:10.908Z,22.82
2016-12-15T07:27:20.063Z,22.75
2016-12-15T07:28:28.746Z,22.62
2016-12-15T07:29:37.733Z,22.62
2016-12-15T07:30:46.431Z,22.58
2016-12-15T07:31:55.117Z,22.67
2016-12-15T07:33:04.289Z,22.64
2016-12-15T07:34:13.279Z,22.61
2016-12-15T07:35:22.283Z,22.58
2016-12-15T07:36:31.887Z,22.55
2016-12-15T07:37:40.881Z,22.52
2016-12-15T07:38:50.185Z,22.55
2016-12-15T07:39:59.168Z,22.42
2016-12-15T07:41:08.166Z,22.46
2016-12-15T07:42:16.857Z,22.37
2016-12-15T07:43:25.849Z,22.39
2016-12-15T07:44:34.850Z,22.3
2016-12-15T07:45:43.537Z,22.27
2016-12-15T07:46:52.877Z,22.25
2016-12-15T07:48:01.881Z,22.3
2016-12-15T07:49:10.894Z,22.22
2016-12-15T07:50:20.233Z,22.25
2016-12-15T07:51:29.551Z,22.27
2016-12-15T07:52:38.548Z,22.2
2016-12-15T07:53:47.608Z,22.17
2016-12-15T07:54:56.938Z,22.22
2016-12-15T07:56:05.979Z,22.15
2016-12-15T07:57:15.595Z,22.07
2016-12-15T07:58:24.593Z,22.14
2016-12-15T07:59:33.598Z,22.09
2016-12-15T08:00:42.643Z,21.98
2016-12-15T08:01:51.402Z,21.98
2016-12-15T08:03:00.474Z,22
2016-12-15T08:04:09.466Z,22
2016-12-15T08:05:18.178Z,22
2016-12-15T08:06:27.507Z,21.94
2016-12-15T08:07:36.808Z,21.94
2016-12-15T08:08:45.821Z,21.99
2016-12-15T08:09:55.515Z,22
2016-12-15T08:11:04.818Z,21.9
2016-12-15T08:12:13.850Z,21.88
2016-12-15T08:13:22.554Z,21.9
2016-12-15T08:14:31.554Z,21.86
2016-12-15T08:15:40.569Z,21.83
2016-12-15T08:16:49.331Z,21.74
2016-12-15T08:17:58.641Z,21.86
2016-12-15T08:19:07.666Z,21.84
2016-12-15T08:20:16.689Z,21.83
2016-12-15T08:21:25.993Z,21.8
2016-12-15T08:22:35.019Z,21.8
2016-12-15T08:23:43.732Z,21.71
2016-12-15T08:24:53.054Z,21.77
2016-12-15T08:26:02.156Z,21.69
2016-12-15T08:27:11.187Z,21.74
2016-12-15T08:28:20.187Z,21.67
2016-12-15T08:29:29.214Z,21.68
2016-12-15T08:30:37.931Z,21.68
2016-12-15T08:31:46.935Z,21.62
2016-12-15T08:32:55.931Z,21.62
2016-12-15T08:34:05.252Z,21.61
2016-12-15T08:35:14.269Z,21.64
2016-12-15T08:36:23.626Z,21.62
2016-12-15T08:37:32.620Z,21.53
2016-12-15T08:38:41.651Z,21.61
2016-12-15T08:39:50.957Z,21.59
2016-12-15T08:40:59.974Z,21.59
2016-12-15T08:42:09.317Z,21.54
2016-12-15T08:43:18.332Z,21.56
2016-12-15T08:44:27.325Z,21.54
2016-12-15T08:45:36.337Z,21.64
2016-12-15T08:46:45.945Z,21.54
2016-12-15T08:47:55.311Z,21.53
2016-12-15T08:49:04.019Z,21.54
2016-12-15T08:50:12.750Z,21.53
2016-12-15T08:51:21.769Z,21.53
2016-12-15T08:52:31.510Z,21.54
2016-12-15T08:53:40.666Z,21.58
2016-12-15T08:54:49.367Z,21.59
2016-12-15T08:55:58.066Z,21.44
2016-12-15T08:57:07.404Z,21.53
2016-12-15T08:58:16.729Z,21.49
2016-12-15T08:59:25.424Z,21.47
2016-12-15T09:00:34.452Z,21.5
2016-12-15T09:01:43.786Z,21.5
2016-12-15T09:02:53.099Z,21.5
2016-12-15T09:04:02.088Z,21.49
2016-12-15T09:05:11.083Z,21.49
2016-12-15T09:06:20.072Z,21.46
2016-12-15T09:07:28.771Z,21.37
2016-12-15T09:08:38.083Z,21.37
2016-12-15T09:09:47.119Z,21.43
2016-12-15T09:10:55.971Z,21.44
2016-12-15T09:12:04.985Z,21.43
2016-12-15T09:13:14.018Z,21.37
2016-12-15T09:14:23.033Z,21.43
2016-12-15T09:15:32.089Z,21.38
2016-12-15T09:16:41.087Z,21.44
2016-12-15T09:17:50.126Z,21.42
2016-12-15T09:18:59.118Z,21.44
2016-12-15T09:20:07.833Z,21.4
2016-12-15T09:21:16.521Z,21.4
2016-12-15T09:22:25.814Z,21.43
2016-12-15T09:23:34.800Z,21.42
2016-12-15T09:24:44.119Z,21.42
2016-12-15T09:25:53.419Z,21.42
2016-12-15T09:27:02.720Z,21.38
2016-12-15T09:28:11.556Z,21.46
2016-12-15T09:29:20.852Z,21.43
2016-12-15T09:30:29.830Z,21.46
2016-12-15T09:31:39.155Z,21.38
2016-12-15T09:32:48.464Z,21.42
2016-12-15T09:33:57.444Z,21.47
2016-12-15T09:35:07.077Z,21.44
2016-12-15T09:36:15.787Z,21.38
2016-12-15T09:37:25.126Z,21.38
2016-12-15T09:38:34.214Z,21.42
2016-12-15T09:39:43.224Z,21.43
2016-12-15T09:40:51.919Z,21.42
2016-12-15T09:42:01.225Z,21.49
2016-12-15T09:43:09.934Z,21.4
2016-12-15T09:44:19.222Z,21.4
2016-12-15T09:45:28.085Z,21.46
2016-12-15T09:46:37.079Z,21.44
2016-12-15T09:47:45.785Z,21.47
2016-12-15T09:48:55.098Z,21.43
2016-12-15T09:50:04.092Z,21.4
2016-12-15T09:51:13.250Z,21.37
2016-12-15T09:52:21.933Z,21.47
2016-12-15T09:53:30.626Z,21.43
2016-12-15T09:54:39.621Z,21.47
2016-12-15T09:55:48.635Z,21.46
2016-12-15T09:56:57.672Z,21.42
2016-12-15T09:58:06.675Z,21.37
2016-12-15T09:59:15.687Z,21.44
2016-12-15T10:00:25.008Z,21.44
2016-12-15T10:01:34.614Z,21.38
2016-12-15T10:02:43.300Z,21.34
2016-12-15T10:03:52.304Z,21.43
2016-12-15T10:05:00.988Z,21.46
2016-12-15T10:06:09.988Z,21.44
2016-12-15T10:07:19.307Z,21.38
2016-12-15T10:08:27.987Z,21.4
2016-12-15T10:09:36.684Z,21.4
2016-12-15T10:10:45.684Z,21.4
2016-12-15T10:11:54.732Z,21.42
2016-12-15T10:13:03.721Z,21.43
2016-12-15T10:14:12.745Z,21.44
2016-12-15T10:15:21.737Z,21.47
2016-12-15T10:16:30.752Z,21.47
2016-12-15T10:17:40.353Z,21.42
2016-12-15T10:18:49.057Z,21.47
2016-12-15T10:19:58.411Z,21.42
2016-12-15T10:21:07.723Z,21.38
2016-12-15T10:22:16.726Z,21.4
2016-12-15T10:23:25.427Z,21.42
2016-12-15T10:24:35.360Z,21.34
2016-12-15T10:25:44.742Z,21.47
2016-12-15T10:26:54.070Z,21.4
2016-12-15T10:28:02.815Z,21.4
2016-12-15T10:29:12.430Z,21.32
2016-12-15T10:30:21.425Z,21.34
2016-12-15T10:31:30.743Z,21.38
2016-12-15T10:32:39.739Z,21.29
2016-12-15T10:33:49.347Z,21.37
2016-12-15T10:34:58.344Z,21.42
2016-12-15T10:36:07.393Z,21.38
2016-12-15T10:37:17.001Z,21.37
2016-12-15T10:38:26.008Z,21.37
2016-12-15T10:39:34.995Z,21.37
2016-12-15T10:40:44.021Z,21.37
2016-12-15T10:41:53.376Z,21.35
2016-12-15T10:43:03.154Z,21.37
2016-12-15T10:44:12.185Z,21.32
2016-12-15T10:45:21.179Z,21.35
2016-12-15T10:46:31.120Z,21.35
2016-12-15T10:47:40.108Z,21.37
2016-12-15T10:48:49.931Z,21.43
2016-12-15T10:49:58.949Z,21.35
2016-12-15T10:51:07.949Z,21.35
2016-12-15T10:52:17.259Z,21.4
2016-12-15T10:53:25.963Z,21.34
2016-12-15T10:54:35.124Z,21.31
2016-12-15T10:55:44.113Z,21.44
2016-12-15T10:56:53.106Z,21.37
2016-12-15T10:58:01.808Z,21.35
2016-12-15T10:59:11.409Z,21.38
2016-12-15T11:00:20.425Z,21.4
2016-12-15T11:01:30.075Z,21.35
2016-12-15T11:02:39.088Z,21.4
2016-12-15T11:03:48.396Z,21.35
2016-12-15T11:04:57.466Z,21.34
2016-12-15T11:06:06.780Z,21.32
2016-12-15T11:07:16.084Z,21.4
2016-12-15T11:08:25.098Z,21.34
2016-12-15T11:09:34.105Z,21.29
2016-12-15T11:10:43.414Z,21.34
2016-12-15T11:11:52.113Z,21.32
2016-12-15T11:13:01.438Z,21.35
2016-12-15T11:14:10.145Z,21.34
2016-12-15T11:15:19.463Z,21.32
2016-12-15T11:16:28.163Z,21.29
2016-12-15T11:17:37.151Z,21.31
2016-12-15T11:18:46.166Z,21.31
2016-12-15T11:19:54.856Z,21.38
2016-12-15T11:21:03.559Z,21.32
2016-12-15T11:22:12.944Z,21.32
2016-12-15T11:23:21.626Z,21.38
2016-12-15T11:24:30.619Z,21.27
2016-12-15T11:25:39.670Z,21.31
2016-12-15T11:26:48.354Z,21.32
2016-12-15T11:27:57.660Z,21.32
2016-12-15T11:29:06.672Z,21.35
2016-12-15T11:30:15.683Z,21.31
2016-12-15T11:31:24.727Z,21.31
2016-12-15T11:32:33.727Z,21.28
2016-12-15T11:33:42.719Z,21.27
2016-12-15T11:34:52.381Z,21.25
2016-12-15T11:36:01.683Z,21.38
2016-12-15T11:37:11.002Z,21.31
2016-12-15T11:38:20.003Z,21.32
2016-12-15T11:39:29.320Z,21.28
2016-12-15T11:40:39.302Z,21.31
2016-12-15T11:41:48.628Z,21.29
2016-12-15T11:42:58.226Z,21.31
2016-12-15T11:44:06.918Z,21.31
2016-12-15T11:45:16.215Z,21.29
2016-12-15T11:46:25.056Z,21.27
2016-12-15T11:47:33.749Z,21.28
2016-12-15T11:48:42.461Z,21.28
2016-12-15T11:49:51.467Z,21.25
2016-12-15T11:51:00.450Z,21.32
2016-12-15T11:52:09.483Z,21.34
2016-12-15T11:53:18.795Z,21.28
2016-12-15T11:54:27.790Z,21.28
2016-12-15T11:55:36.507Z,21.27
2016-12-15T11:56:45.207Z,21.28
2016-12-15T11:57:53.896Z,21.29
2016-12-15T11:59:03.204Z,21.31
2016-12-15T12:00:12.185Z,21.31
2016-12-15T12:01:20.889Z,21.34
2016-12-15T12:02:29.892Z,21.28
2016-12-15T12:03:38.598Z,21.32
2016-12-15T12:04:47.600Z,21.28
2016-12-15T12:05:56.296Z,21.29
2016-12-15T12:07:05.302Z,21.28
2016-12-15T12:08:14.319Z,21.32
2016-12-15T12:09:23.954Z,21.37
2016-12-15T12:10:33.249Z,21.32
2016-12-15T12:11:41.945Z,21.37
2016-12-15T12:12:50.941Z,21.31
2016-12-15T12:13:59.649Z,21.31
2016-12-15T12:15:08.697Z,21.29
2016-12-15T12:16:18.000Z,21.28
2016-12-15T12:17:27.001Z,21.32
2016-12-15T12:18:36.023Z,21.31
2016-12-15T12:19:45.328Z,21.27
2016-12-15T12:20:54.668Z,21.25
2016-12-15T12:22:04.292Z,21.32
2016-12-15T12:23:13.300Z,21.27
2016-12-15T12:24:22.297Z,21.28
2016-12-15T12:25:31.281Z,21.32
2016-12-15T12:26:40.734Z,21.28
2016-12-15T12:27:49.437Z,21.34
2016-12-15T12:28:58.131Z,21.29
2016-12-15T12:30:07.157Z,21.29
2016-12-15T12:31:16.139Z,21.28
2016-12-15T12:32:25.158Z,21.24
2016-12-15T12:33:34.538Z,21.31
2016-12-15T12:34:43.837Z,21.32
2016-12-15T12:35:52.843Z,21.31
2016-12-15T12:37:01.847Z,21.25
2016-12-15T12:38:10.574Z,21.32
2016-12-15T12:39:19.280Z,21.27
2016-12-15T12:40:28.599Z,21.24
2016-12-15T12:41:37.923Z,21.19
2016-12-15T12:42:46.925Z,21.24
2016-12-15T12:43:56.389Z,21.22
2016-12-15T12:45:05.398Z,21.28
2016-12-15T12:46:14.418Z,21.24
2016-12-15T12:47:23.116Z,21.22
2016-12-15T12:48:32.420Z,21.21
2016-12-15T12:49:41.461Z,21.25
2016-12-15T12:50:50.145Z,21.31
2016-12-15T12:51:59.136Z,21.22
2016-12-15T12:53:08.124Z,21.25
2016-12-15T12:54:16.798Z,21.25
2016-12-15T12:55:25.505Z,21.29
2016-12-15T12:56:34.484Z,21.25
2016-12-15T12:57:43.159Z,21.25
2016-12-15T12:58:52.170Z,21.29
2016-12-15T13:00:01.470Z,21.22
2016-12-15T13:01:10.618Z,21.28
2016-12-15T13:02:19.310Z,21.27
2016-12-15T13:03:28.326Z,21.28
2016-12-15T13:04:37.367Z,21.24
2016-12-15T13:05:46.406Z,21.29
2016-12-15T13:06:55.502Z,21.28
2016-12-15T13:08:04.826Z,21.24
2016-12-15T13:09:13.832Z,21.14
2016-12-15T13:10:23.132Z,21.22
2016-12-15T13:11:32.132Z,21.21
2016-12-15T13:12:41.486Z,21.25
2016-12-15T13:13:50.806Z,21.24
2016-12-15T13:14:59.486Z,21.27
2016-12-15T13:16:08.179Z,21.25
2016-12-15T13:17:16.870Z,21.25
2016-12-15T13:18:26.181Z,21.25
2016-12-15T13:19:34.862Z,21.28
2016-12-15T13:20:43.852Z,21.25
2016-12-15T13:21:52.849Z,21.24
2016-12-15T13:23:01.544Z,21.19
2016-12-15T13:24:11.220Z,21.25
2016-12-15T13:25:20.241Z,21.29
2016-12-15T13:26:29.871Z,21.22
2016-12-15T13:27:38.901Z,21.19
2016-12-15T13:28:47.638Z,21.22
2016-12-15T13:29:56.644Z,21.22
2016-12-15T13:31:05.670Z,21.17
2016-12-15T13:32:14.372Z,21.21
2016-12-15T13:33:23.987Z,21.29
2016-12-15T13:34:32.710Z,21.24
2016-12-15T13:35:41.864Z,21.22
2016-12-15T13:36:51.195Z,21.25
2016-12-15T13:38:00.225Z,21.17
2016-12-15T13:39:08.936Z,21.22
2016-12-15T13:40:18.267Z,21.21
2016-12-15T13:41:27.266Z,21.22
2016-12-15T13:42:35.970Z,21.22
2016-12-15T13:43:44.717Z,21.19
2016-12-15T13:44:54.026Z,21.17
2016-12-15T13:46:03.341Z,21.21
2016-12-15T13:47:12.058Z,21.13
2016-12-15T13:48:20.758Z,21.19
2016-12-15T13:49:29.450Z,21.14
2016-12-15T13:50:38.736Z,21.1
2016-12-15T13:51:47.715Z,21.14
2016-12-15T13:52:56.717Z,21.17
2016-12-15T13:54:05.426Z,21.13
2016-12-15T13:55:14.455Z,21.09
2016-12-15T13:56:23.147Z,21.17
2016-12-15T13:57:32.196Z,21.12
2016-12-15T13:58:40.885Z,21.13
2016-12-15T13:59:49.908Z,21.14
2016-12-15T14:00:58.669Z,21.13
2016-12-15T14:02:08.283Z,21.12
2016-12-15T14:03:17.265Z,21.13
2016-12-15T14:04:26.254Z,21.19
2016-12-15T14:05:35.562Z,21.03
2016-12-15T14:06:44.554Z,21.14
2016-12-15T14:07:53.236Z,21.21
2016-12-15T14:09:01.940Z,21.14
2016-12-15T14:12:43.775Z,21.12
2016-12-15T14:13:52.461Z,21.1
2016-12-15T14:15:01.762Z,21.04
2016-12-15T14:16:10.473Z,21.03
2016-12-15T14:17:19.774Z,21.1
2016-12-15T14:18:28.604Z,21.03
2016-12-15T14:19:37.292Z,21.01
2016-12-15T14:23:18.668Z,20.99
2016-12-15T14:24:27.993Z,21.04
2016-12-15T14:25:37.297Z,21.01
2016-12-15T14:26:46.332Z,20.98
2016-12-15T14:27:55.026Z,20.97
2016-12-15T14:29:04.018Z,21.01
2016-12-15T14:30:13.037Z,21.06
2016-12-15T14:31:22.042Z,20.99
2016-12-15T14:32:31.044Z,20.97
2016-12-15T14:36:12.106Z,21.04
2016-12-15T14:39:53.193Z,20.97
2016-12-15T14:41:02.253Z,20.95
2016-12-15T14:42:11.236Z,20.94
2016-12-15T14:43:20.243Z,20.99
2016-12-15T14:47:01.600Z,20.97
2016-12-15T14:48:11.244Z,21.03
2016-12-15T14:49:20.563Z,20.94
2016-12-15T14:50:29.598Z,20.98
2016-12-15T14:51:38.295Z,20.94
2016-12-15T14:52:47.303Z,21.03
2016-12-15T14:53:56.307Z,20.94
2016-12-15T14:55:05.615Z,21.03
2016-12-15T14:56:14.304Z,20.95
2016-12-15T14:57:23.013Z,20.95
2016-12-15T14:58:32.168Z,20.98
2016-12-15T14:59:40.913Z,20.98
2016-12-15T15:00:49.948Z,20.97
2016-12-15T15:01:59.247Z,20.92
2016-12-15T15:03:08.267Z,20.99
2016-12-15T15:04:17.413Z,20.97
2016-12-15T15:05:26.423Z,20.89
2016-12-15T15:06:35.124Z,20.94
2016-12-15T15:07:44.436Z,20.89
2016-12-15T15:08:53.137Z,20.87
2016-12-15T15:10:02.153Z,20.85
2016-12-15T15:11:11.466Z,20.8
2016-12-15T15:12:20.193Z,20.91
2016-12-15T15:13:29.185Z,20.87
2016-12-15T15:14:37.906Z,20.97
2016-12-15T15:15:46.907Z,20.94
2016-12-15T15:16:55.988Z,20.95
2016-12-15T15:18:04.690Z,20.88
2016-12-15T15:19:13.708Z,20.91
2016-12-15T15:20:22.396Z,20.85
2016-12-15T15:21:31.537Z,20.95
2016-12-15T15:22:40.551Z,20.82
2016-12-15T15:23:49.539Z,20.87
2016-12-15T15:24:58.234Z,20.87
2016-12-15T15:26:07.855Z,20.82